createdAt,value
2023-05-19T00:00:21.679Z,2.95
2023-05-19T00:01:21.676Z,2.99
2023-05-19T00:02:21.700Z,3.00
2023-05-19T00:03:21.753Z,2.96
2023-05-19T00:04:21.729Z,2.85
2023-05-19T00:05:21.795Z,2.93
2023-05-19T00:06:21.870Z,2.91
2023-05-19T00:07:21.846Z,2.99
2023-05-19T00:08:21.892Z,3.04
2023-05-19T00:09:21.903Z,3.05
2023-05-19T00:10:21.904Z,3.01
2023-05-19T00:11:21.906Z,3.10
2023-05-19T00:12:21.914Z,2.82
2023-05-19T00:13:21.975Z,2.79
2023-05-19T00:14:22.007Z,2.91
2023-05-19T00:15:22.058Z,2.95
2023-05-19T00:16:22.181Z,2.94
2023-05-19T00:17:22.164Z,3.01
2023-05-19T00:18:22.194Z,2.95
2023-05-19T00:19:22.415Z,3.01
2023-05-19T00:20:22.292Z,3.00
2023-05-19T00:21:22.357Z,3.02
2023-05-19T00:22:22.399Z,2.91
2023-05-19T00:23:22.456Z,2.98
2023-05-19T00:24:22.490Z,3.01
2023-05-19T00:25:22.551Z,3.01
2023-05-19T00:26:22.580Z,3.05
2023-05-19T00:27:22.632Z,3.10
2023-05-19T00:28:22.636Z,3.09
2023-05-19T00:29:22.667Z,3.04
2023-05-19T00:30:22.634Z,3.06
2023-05-19T00:31:22.667Z,3.06
2023-05-19T00:32:22.638Z,3.02
2023-05-19T00:33:22.619Z,3.04
2023-05-19T00:34:22.669Z,3.09
2023-05-19T00:35:22.615Z,3.12
2023-05-19T00:36:22.772Z,3.08
2023-05-19T00:37:22.604Z,3.01
2023-05-19T00:38:22.617Z,3.05
2023-05-19T00:39:22.605Z,3.02
2023-05-19T00:40:22.599Z,3.11
2023-05-19T00:41:22.617Z,3.08
2023-05-19T00:42:22.595Z,3.08
2023-05-19T00:43:22.600Z,2.98
2023-05-19T00:44:22.598Z,3.11
2023-05-19T00:45:22.586Z,3.16
2023-05-19T00:46:22.627Z,3.06
2023-05-19T00:47:22.590Z,2.99
2023-05-19T00:48:22.570Z,3.02
2023-05-19T00:49:22.571Z,2.97
2023-05-19T00:50:22.575Z,3.02
2023-05-19T00:51:22.574Z,3.00
2023-05-19T00:52:22.623Z,3.10
2023-05-19T00:53:22.671Z,3.03
2023-05-19T00:54:22.731Z,3.09
2023-05-19T00:55:22.772Z,3.07
2023-05-19T00:56:22.825Z,3.11
2023-05-19T00:57:22.839Z,3.09
2023-05-19T00:58:22.904Z,3.07
2023-05-19T00:59:22.944Z,3.12
2023-05-19T01:00:22.990Z,3.13
2023-05-19T01:01:23.083Z,3.08
2023-05-19T01:02:23.116Z,3.16
2023-05-19T01:03:23.087Z,3.17
2023-05-19T01:04:23.032Z,3.08
2023-05-19T01:05:23.048Z,3.08
2023-05-19T01:06:23.036Z,3.01
2023-05-19T01:07:23.074Z,2.94
2023-05-19T01:08:23.116Z,2.92
2023-05-19T01:09:23.183Z,2.87
2023-05-19T01:10:23.224Z,2.93
2023-05-19T01:11:23.294Z,3.00
2023-05-19T01:12:23.312Z,2.88
2023-05-19T01:13:23.405Z,2.84
2023-05-19T01:14:23.404Z,3.02
2023-05-19T01:15:23.469Z,2.91
2023-05-19T01:16:23.405Z,3.00
2023-05-19T01:17:23.460Z,2.93
2023-05-19T01:18:23.520Z,2.95
2023-05-19T01:19:23.468Z,3.04
2023-05-19T01:20:23.402Z,2.94
2023-05-19T01:21:23.391Z,2.99
2023-05-19T01:22:23.401Z,2.88
2023-05-19T01:23:23.407Z,2.91
2023-05-19T01:24:23.416Z,2.94
2023-05-19T01:25:23.460Z,2.95
2023-05-19T01:26:23.411Z,2.84
2023-05-19T01:27:23.425Z,2.97
2023-05-19T01:28:23.414Z,2.97
2023-05-19T01:29:23.424Z,3.08
2023-05-19T01:30:23.420Z,3.01
2023-05-19T01:31:23.449Z,3.06
2023-05-19T01:32:23.497Z,2.93
2023-05-19T01:33:23.502Z,2.99
2023-05-19T01:34:23.541Z,3.11
2023-05-19T01:35:23.509Z,3.05
2023-05-19T01:36:23.509Z,2.99
2023-05-19T01:37:23.504Z,2.93
2023-05-19T01:38:23.507Z,2.98
2023-05-19T01:39:23.525Z,3.15
2023-05-19T01:40:23.551Z,3.18
2023-05-19T01:41:23.565Z,3.21
2023-05-19T01:42:23.681Z,3.08
2023-05-19T01:43:23.586Z,2.94
2023-05-19T01:44:23.637Z,2.87
2023-05-19T01:45:23.672Z,2.85
2023-05-19T01:46:23.730Z,2.92
2023-05-19T01:47:23.716Z,2.94
2023-05-19T01:48:23.729Z,2.91
2023-05-19T01:49:23.800Z,2.81
2023-05-19T01:50:23.845Z,2.79
2023-05-19T01:51:23.908Z,2.93
2023-05-19T01:52:23.939Z,3.01
2023-05-19T01:53:24.002Z,3.09
2023-05-19T01:54:24.040Z,2.93
2023-05-19T01:55:24.049Z,2.90
2023-05-19T01:56:24.051Z,2.90
2023-05-19T01:57:24.043Z,3.02
2023-05-19T01:58:24.145Z,2.95
2023-05-19T01:59:24.061Z,3.00
2023-05-19T02:00:24.066Z,3.01
2023-05-19T02:01:24.083Z,2.95
2023-05-19T02:02:24.098Z,3.01
2023-05-19T02:03:24.103Z,3.07
2023-05-19T02:04:24.164Z,2.98
2023-05-19T02:05:24.095Z,3.06
2023-05-19T02:06:24.081Z,3.00
2023-05-19T02:07:24.129Z,3.01
2023-05-19T02:08:24.193Z,3.07
2023-05-19T02:09:24.209Z,3.11
2023-05-19T02:10:24.297Z,3.10
2023-05-19T02:11:24.492Z,3.06
2023-05-19T02:12:24.349Z,3.01
2023-05-19T02:13:24.369Z,3.06
2023-05-19T02:14:24.358Z,2.96
2023-05-19T02:15:24.363Z,2.94
2023-05-19T02:16:24.498Z,2.91
2023-05-19T02:17:24.375Z,2.74
2023-05-19T02:18:24.380Z,2.87
2023-05-19T02:19:24.483Z,3.00
2023-05-19T02:20:24.357Z,2.97
2023-05-19T02:21:24.375Z,2.81
2023-05-19T02:22:24.361Z,2.78
2023-05-19T02:23:24.388Z,2.95
2023-05-19T02:24:24.386Z,3.04
2023-05-19T02:25:24.416Z,3.03
2023-05-19T02:26:24.437Z,2.94
2023-05-19T02:27:24.421Z,2.90
2023-05-19T02:28:24.398Z,2.88
2023-05-19T02:29:24.501Z,2.73
2023-05-19T02:30:24.371Z,2.76
2023-05-19T02:31:24.426Z,2.77
2023-05-19T02:32:24.386Z,2.89
2023-05-19T02:33:24.419Z,2.94
2023-05-19T02:34:24.426Z,2.94
2023-05-19T02:35:24.415Z,2.99
2023-05-19T02:36:24.419Z,2.98
2023-05-19T02:37:24.418Z,2.90
2023-05-19T02:38:24.397Z,2.95
2023-05-19T02:39:24.427Z,3.00
2023-05-19T02:40:24.433Z,3.00
2023-05-19T02:41:24.473Z,2.93
2023-05-19T02:42:24.505Z,3.09
2023-05-19T02:43:24.555Z,3.09
2023-05-19T02:44:24.591Z,3.05
2023-05-19T02:45:24.695Z,3.06
2023-05-19T02:46:24.770Z,2.85
2023-05-19T02:47:24.807Z,2.76
2023-05-19T02:48:24.824Z,2.96
2023-05-19T02:49:24.839Z,2.84
2023-05-19T02:50:24.896Z,2.86
2023-05-19T02:51:24.942Z,2.94
2023-05-19T02:52:24.994Z,2.90
2023-05-19T02:53:25.034Z,2.95
2023-05-19T02:54:25.090Z,2.87
2023-05-19T02:55:25.159Z,2.76
2023-05-19T02:56:25.207Z,2.81
2023-05-19T02:57:25.255Z,2.77
2023-05-19T02:58:25.326Z,2.93
2023-05-19T02:59:25.791Z,2.92
2023-05-19T03:00:25.401Z,2.94
2023-05-19T03:01:25.506Z,2.84
2023-05-19T03:02:25.567Z,2.78
2023-05-19T03:03:25.666Z,2.97
2023-05-19T03:04:25.647Z,3.05
2023-05-19T03:05:25.704Z,3.02
2023-05-19T03:06:25.777Z,2.94
2023-05-19T03:07:25.811Z,2.96
2023-05-19T03:08:25.861Z,2.83
2023-05-19T03:09:25.861Z,2.83
2023-05-19T03:10:25.873Z,2.89
2023-05-19T03:11:25.888Z,3.01
2023-05-19T03:12:25.939Z,3.11
2023-05-19T03:13:25.977Z,3.13
2023-05-19T03:14:26.023Z,3.07
2023-05-19T03:15:26.091Z,3.08
2023-05-19T03:16:26.224Z,3.08
2023-05-19T03:17:26.264Z,3.12
2023-05-19T03:18:26.369Z,3.12
2023-05-19T03:19:26.447Z,3.12
2023-05-19T03:20:26.391Z,3.07
2023-05-19T03:21:26.464Z,3.01
2023-05-19T03:22:26.501Z,2.99
2023-05-19T03:23:26.622Z,3.05
2023-05-19T03:24:26.620Z,2.97
2023-05-19T03:25:26.664Z,3.09
2023-05-19T03:26:26.681Z,3.01
2023-05-19T03:27:26.658Z,3.02
2023-05-19T03:28:26.712Z,2.91
2023-05-19T03:29:26.727Z,2.99
2023-05-19T03:30:26.749Z,2.93
2023-05-19T03:31:26.869Z,2.99
2023-05-19T03:32:26.873Z,2.94
2023-05-19T03:33:26.992Z,2.95
2023-05-19T03:34:26.830Z,2.90
2023-05-19T03:35:26.846Z,2.91
2023-05-19T03:36:26.843Z,2.96
2023-05-19T03:37:26.836Z,2.96
2023-05-19T03:38:26.860Z,3.00
2023-05-19T03:39:26.849Z,3.03
2023-05-19T03:40:26.887Z,3.02
2023-05-19T03:41:27.177Z,3.01
2023-05-19T03:42:26.880Z,3.03
2023-05-19T03:43:26.905Z,3.04
2023-05-19T03:44:26.952Z,3.12
2023-05-19T03:45:26.997Z,2.95
2023-05-19T03:46:27.102Z,2.80
2023-05-19T03:47:27.128Z,2.85
2023-05-19T03:48:27.149Z,2.89
2023-05-19T03:49:27.183Z,2.93
2023-05-19T03:50:27.261Z,2.82
2023-05-19T03:51:27.319Z,2.96
2023-05-19T03:52:27.363Z,3.02
2023-05-19T03:53:27.428Z,2.97
2023-05-19T03:54:27.477Z,2.87
2023-05-19T03:55:27.534Z,2.90
2023-05-19T03:56:27.529Z,2.83
2023-05-19T03:57:27.536Z,2.85
2023-05-19T03:58:27.544Z,2.95
2023-05-19T03:59:27.560Z,3.03
2023-05-19T04:00:27.568Z,3.06
2023-05-19T04:01:27.572Z,3.03
2023-05-19T04:02:27.637Z,2.93
2023-05-19T04:03:27.621Z,2.85
2023-05-19T04:04:27.681Z,2.95
2023-05-19T04:05:27.807Z,2.84
2023-05-19T04:06:27.722Z,2.96
2023-05-19T04:07:27.741Z,3.04
2023-05-19T04:08:27.789Z,2.97
2023-05-19T04:09:27.689Z,2.94
2023-05-19T04:10:27.745Z,2.94
2023-05-19T04:11:27.801Z,3.06
2023-05-19T04:12:27.848Z,3.03
2023-05-19T04:13:27.893Z,3.10
2023-05-19T04:14:27.934Z,2.98
2023-05-19T04:15:27.984Z,2.96
2023-05-19T04:16:28.023Z,3.01
2023-05-19T04:17:28.012Z,3.01
2023-05-19T04:18:29.145Z,2.88
2023-05-19T04:19:28.152Z,2.87
2023-05-19T04:20:28.004Z,2.84
2023-05-19T04:21:28.091Z,2.85
2023-05-19T04:22:28.013Z,2.90
2023-05-19T04:23:28.011Z,2.94
2023-05-19T04:24:28.015Z,2.86
2023-05-19T04:25:28.040Z,2.79
2023-05-19T04:26:28.147Z,2.93
2023-05-19T04:27:28.105Z,2.96
2023-05-19T04:28:28.137Z,2.86
2023-05-19T04:29:28.326Z,2.69
2023-05-19T04:30:28.195Z,2.75
2023-05-19T04:31:28.275Z,2.87
2023-05-19T04:32:28.259Z,2.77
2023-05-19T04:33:28.253Z,2.58
2023-05-19T04:34:28.244Z,2.65
2023-05-19T04:35:28.255Z,2.73
2023-05-19T04:36:28.256Z,2.69
2023-05-19T04:37:28.248Z,2.66
2023-05-19T04:38:28.250Z,2.55
2023-05-19T04:39:28.300Z,2.69
2023-05-19T04:40:28.346Z,2.59
2023-05-19T04:41:28.400Z,2.45
2023-05-19T04:42:28.368Z,2.42
2023-05-19T04:43:28.368Z,2.43
2023-05-19T04:44:28.341Z,2.23
2023-05-19T04:45:28.484Z,2.08
2023-05-19T04:46:28.624Z,2.08
2023-05-19T04:47:28.499Z,1.98
2023-05-19T04:48:28.454Z,2.01
2023-05-19T04:49:28.481Z,1.98
2023-05-19T04:50:28.511Z,1.90
2023-05-19T04:51:30.459Z,1.86
2023-05-19T04:52:28.588Z,1.97
2023-05-19T04:53:28.670Z,1.86
2023-05-19T04:54:28.718Z,1.83
2023-05-19T04:55:28.778Z,1.86
2023-05-19T04:56:28.855Z,2.20
2023-05-19T04:57:28.857Z,2.13
2023-05-19T04:58:28.856Z,1.98
2023-05-19T04:59:28.880Z,1.99
2023-05-19T05:00:28.880Z,2.05
2023-05-19T05:01:28.929Z,2.03
2023-05-19T05:02:28.936Z,2.06
2023-05-19T05:03:28.950Z,2.00
2023-05-19T05:04:28.875Z,1.84
2023-05-19T05:05:28.892Z,1.82
2023-05-19T05:06:28.890Z,1.89
2023-05-19T05:07:29.760Z,1.79
2023-05-19T05:08:28.916Z,1.78
2023-05-19T05:09:28.886Z,1.77
2023-05-19T05:10:28.889Z,1.75
2023-05-19T05:11:28.891Z,1.73
2023-05-19T05:12:28.884Z,1.70
2023-05-19T05:13:28.883Z,1.68
2023-05-19T05:14:28.866Z,1.73
2023-05-19T05:15:28.883Z,1.70
2023-05-19T05:16:28.915Z,1.55
2023-05-19T05:17:28.906Z,1.62
2023-05-19T05:18:28.840Z,1.72
2023-05-19T05:19:28.945Z,1.78
2023-05-19T05:20:28.838Z,1.80
2023-05-19T05:21:28.806Z,1.84
2023-05-19T05:22:28.814Z,1.90
2023-05-19T05:23:28.802Z,2.24
2023-05-19T05:24:28.801Z,2.38
2023-05-19T05:25:28.801Z,2.45
2023-05-19T05:26:28.805Z,2.66
2023-05-19T05:27:28.798Z,2.69
2023-05-19T05:28:28.791Z,2.91
2023-05-19T05:29:28.755Z,2.88
2023-05-19T05:30:28.748Z,2.75
2023-05-19T05:31:28.746Z,2.48
2023-05-19T05:32:28.858Z,2.44
2023-05-19T05:33:28.786Z,2.75
2023-05-19T05:34:28.739Z,2.57
2023-05-19T05:35:28.747Z,2.35
2023-05-19T05:36:28.714Z,2.29
2023-05-19T05:37:28.714Z,2.18
2023-05-19T05:38:28.714Z,2.08
2023-05-19T05:39:28.709Z,1.97
2023-05-19T05:40:28.683Z,1.91
2023-05-19T05:41:28.700Z,1.78
2023-05-19T05:42:29.783Z,1.96
2023-05-19T05:43:28.675Z,1.91
2023-05-19T05:44:28.676Z,1.75
2023-05-19T05:45:28.651Z,1.82
2023-05-19T05:46:28.764Z,1.64
2023-05-19T05:47:28.680Z,1.77
2023-05-19T05:48:28.649Z,1.96
2023-05-19T05:49:28.637Z,2.05
2023-05-19T05:50:28.626Z,1.94
2023-05-19T05:51:28.667Z,1.89
2023-05-19T05:52:28.621Z,2.10
2023-05-19T05:53:28.609Z,2.11
2023-05-19T05:54:28.613Z,2.17
2023-05-19T05:55:28.592Z,2.10
2023-05-19T05:56:28.582Z,2.20
2023-05-19T05:57:28.582Z,2.16
2023-05-19T05:58:28.559Z,2.01
2023-05-19T05:59:28.547Z,2.06
2023-05-19T06:00:28.544Z,1.80
2023-05-19T06:01:28.539Z,1.79
2023-05-19T06:02:28.643Z,1.89
2023-05-19T06:03:28.604Z,1.93
2023-05-19T06:04:28.544Z,1.92
2023-05-19T06:05:28.571Z,1.82
2023-05-19T06:06:28.556Z,1.96
2023-05-19T06:07:28.568Z,1.96
2023-05-19T06:08:28.548Z,1.95
2023-05-19T06:09:28.568Z,1.95
2023-05-19T06:10:28.560Z,1.99
2023-05-19T06:11:28.598Z,2.00
2023-05-19T06:12:28.569Z,1.89
2023-05-19T06:13:28.579Z,1.77
2023-05-19T06:14:28.575Z,1.75
2023-05-19T06:15:28.690Z,1.77
2023-05-19T06:16:28.604Z,1.74
2023-05-19T06:17:28.657Z,1.77
2023-05-19T06:18:28.726Z,1.75
2023-05-19T06:19:28.758Z,1.79
2023-05-19T06:20:28.770Z,1.80
2023-05-19T06:21:28.785Z,1.82
2023-05-19T06:22:28.808Z,1.86
2023-05-19T06:23:28.913Z,1.92
2023-05-19T06:24:28.949Z,1.88
2023-05-19T06:25:29.004Z,1.86
2023-05-19T06:26:29.070Z,1.79
2023-05-19T06:27:29.108Z,1.73
2023-05-19T06:28:29.176Z,1.71
2023-05-19T06:29:29.254Z,1.64
2023-05-19T06:30:29.377Z,1.71
2023-05-19T06:31:29.444Z,1.68
2023-05-19T06:32:29.468Z,1.68
2023-05-19T06:33:29.491Z,1.60
2023-05-19T06:34:29.462Z,1.68
2023-05-19T06:35:29.467Z,1.69
2023-05-19T06:36:29.632Z,1.69
2023-05-19T06:37:29.546Z,1.77
2023-05-19T06:38:29.531Z,1.74
2023-05-19T06:39:29.633Z,1.70
2023-05-19T06:40:29.685Z,1.69
2023-05-19T06:41:29.581Z,1.66
2023-05-19T06:42:29.607Z,1.61
2023-05-19T06:43:29.591Z,1.61
2023-05-19T06:44:29.577Z,1.59
2023-05-19T06:45:29.592Z,1.57
2023-05-19T06:46:29.634Z,1.46
2023-05-19T06:47:29.613Z,1.43
2023-05-19T06:48:29.601Z,1.44
2023-05-19T06:49:29.592Z,1.45
2023-05-19T06:50:29.607Z,1.38
2023-05-19T06:51:29.587Z,1.41
2023-05-19T06:52:29.593Z,1.42
2023-05-19T06:53:29.660Z,1.42
2023-05-19T06:54:29.740Z,1.46
2023-05-19T06:55:29.671Z,1.45
2023-05-19T06:56:29.713Z,1.45
2023-05-19T06:57:29.760Z,1.43
2023-05-19T06:58:29.820Z,1.42
2023-05-19T06:59:29.890Z,1.51
2023-05-19T07:00:29.948Z,1.54
2023-05-19T07:01:30.040Z,1.55
2023-05-19T07:02:30.125Z,1.62
2023-05-19T07:03:30.151Z,1.66
2023-05-19T07:04:30.139Z,1.63
2023-05-19T07:05:30.180Z,1.60
2023-05-19T07:06:30.189Z,1.64
2023-05-19T07:07:30.203Z,1.65
2023-05-19T07:08:30.213Z,1.63
2023-05-19T07:09:30.218Z,1.65
2023-05-19T07:10:30.328Z,1.59
2023-05-19T07:11:30.237Z,1.57
2023-05-19T07:12:30.300Z,1.55
2023-05-19T07:13:30.380Z,1.52
2023-05-19T07:14:30.375Z,1.50
2023-05-19T07:15:30.432Z,1.47
2023-05-19T07:16:30.501Z,1.51
2023-05-19T07:17:30.547Z,1.46
2023-05-19T07:18:30.547Z,1.48
2023-05-19T07:19:30.707Z,1.48
2023-05-19T07:20:30.863Z,1.50
2023-05-19T07:21:30.653Z,1.52
2023-05-19T07:22:30.690Z,1.48
2023-05-19T07:23:30.727Z,1.47
2023-05-19T07:24:30.718Z,1.49
2023-05-19T07:25:30.722Z,1.50
2023-05-19T07:26:30.721Z,1.48
2023-05-19T07:27:30.715Z,1.49
2023-05-19T07:28:30.714Z,1.52
2023-05-19T07:29:30.823Z,1.53
2023-05-19T07:30:30.989Z,1.60
2023-05-19T07:31:30.794Z,1.50
2023-05-19T07:32:30.855Z,1.44
2023-05-19T07:33:30.861Z,1.50
2023-05-19T07:34:30.891Z,1.44
2023-05-19T07:35:30.883Z,1.38
2023-05-19T07:36:30.894Z,1.29
2023-05-19T07:37:30.901Z,1.28
2023-05-19T07:38:30.921Z,1.25
2023-05-19T07:39:30.959Z,1.25
2023-05-19T07:40:31.112Z,1.31
2023-05-19T07:41:31.069Z,1.27
2023-05-19T07:42:31.139Z,1.19
2023-05-19T07:43:31.186Z,1.22
2023-05-19T07:44:31.296Z,1.18
2023-05-19T07:45:31.413Z,1.14
2023-05-19T07:46:31.566Z,1.17
2023-05-19T07:47:31.462Z,1.19
2023-05-19T07:48:31.496Z,1.20
2023-05-19T07:49:31.596Z,1.22
2023-05-19T07:50:31.883Z,1.20
2023-05-19T07:51:31.681Z,1.20
2023-05-19T07:52:31.725Z,1.17
2023-05-19T07:53:31.797Z,1.09
2023-05-19T07:54:31.833Z,1.03
2023-05-19T07:55:31.889Z,1.02
2023-05-19T07:56:31.939Z,0.83
2023-05-19T07:57:32.004Z,0.85
2023-05-19T07:58:32.084Z,0.94
2023-05-19T07:59:32.077Z,0.94
2023-05-19T08:00:32.196Z,0.92
2023-05-19T08:01:32.097Z,0.92
2023-05-19T08:02:32.198Z,0.91
2023-05-19T08:03:32.360Z,0.90
2023-05-19T08:04:32.208Z,0.90
2023-05-19T08:05:32.210Z,0.82
2023-05-19T08:06:32.350Z,0.82
2023-05-19T08:07:32.312Z,0.85
2023-05-19T08:08:32.360Z,0.78
2023-05-19T08:09:32.368Z,0.63
2023-05-19T08:10:32.586Z,0.66
2023-05-19T08:11:32.499Z,0.62
2023-05-19T08:12:32.504Z,0.67
2023-05-19T08:13:32.498Z,0.61
2023-05-19T08:14:32.520Z,0.65
2023-05-19T08:15:32.737Z,0.65
2023-05-19T08:16:32.661Z,0.54
2023-05-19T08:17:32.577Z,0.55
2023-05-19T08:18:32.592Z,0.62
2023-05-19T08:19:32.597Z,0.64
2023-05-19T08:20:32.862Z,0.62
2023-05-19T08:21:32.670Z,0.54
2023-05-19T08:22:32.679Z,0.49
2023-05-19T08:23:32.694Z,0.54
2023-05-19T08:24:32.713Z,0.60
2023-05-19T08:25:32.753Z,0.67
2023-05-19T08:26:33.101Z,0.73
2023-05-19T08:27:32.838Z,0.77
2023-05-19T08:28:32.884Z,0.85
2023-05-19T08:29:32.954Z,0.95
2023-05-19T08:30:33.236Z,1.02
2023-05-19T08:31:33.137Z,1.03
2023-05-19T08:32:33.186Z,1.07
2023-05-19T08:33:33.187Z,1.18
2023-05-19T08:34:33.239Z,1.24
2023-05-19T08:35:33.276Z,1.30
2023-05-19T08:36:33.348Z,1.32
2023-05-19T08:37:34.253Z,1.38
2023-05-19T08:38:33.529Z,1.41
2023-05-19T08:39:33.499Z,1.49
2023-05-19T08:40:33.917Z,1.52
2023-05-19T08:41:33.636Z,1.56
2023-05-19T08:42:33.712Z,1.53
2023-05-19T08:43:33.740Z,1.59
2023-05-19T08:44:33.893Z,1.64
2023-05-19T08:45:34.117Z,1.71
2023-05-19T08:46:34.024Z,1.71
2023-05-19T08:47:33.925Z,1.74
2023-05-19T08:48:33.922Z,1.72
2023-05-19T08:49:33.947Z,1.78
2023-05-19T08:50:34.203Z,1.84
2023-05-19T08:51:34.014Z,1.89
2023-05-19T08:52:34.040Z,1.98
2023-05-19T08:53:34.733Z,1.88
2023-05-19T08:54:34.104Z,1.81
2023-05-19T08:55:34.626Z,1.81
2023-05-19T08:56:34.132Z,1.79
2023-05-19T08:57:34.197Z,1.84
2023-05-19T08:58:34.257Z,1.87
2023-05-19T08:59:34.239Z,1.90
2023-05-19T09:00:34.447Z,1.92
2023-05-19T09:01:34.521Z,1.92
2023-05-19T09:02:34.304Z,1.83
2023-05-19T09:03:34.416Z,1.91
2023-05-19T09:04:34.424Z,1.96
2023-05-19T09:05:34.754Z,1.82
2023-05-19T09:06:34.485Z,1.66
2023-05-19T09:07:34.494Z,1.50
2023-05-19T09:08:34.551Z,1.48
2023-05-19T09:09:34.733Z,1.33
2023-05-19T09:10:34.657Z,1.22
2023-05-19T09:11:34.724Z,1.25
2023-05-19T09:12:34.740Z,1.32
2023-05-19T09:13:34.817Z,1.28
2023-05-19T09:14:34.870Z,1.28
2023-05-19T09:15:35.220Z,1.39
2023-05-19T09:16:35.075Z,1.38
2023-05-19T09:17:35.072Z,1.28
2023-05-19T09:18:35.084Z,1.22
2023-05-19T09:19:35.213Z,1.24
2023-05-19T09:20:35.130Z,1.18
2023-05-19T09:21:35.155Z,1.15
2023-05-19T09:22:35.163Z,1.10
2023-05-19T09:23:35.159Z,1.09
2023-05-19T09:24:35.169Z,1.04
2023-05-19T09:25:35.455Z,0.99
2023-05-19T09:26:35.214Z,1.01
2023-05-19T09:27:35.209Z,1.06
2023-05-19T09:28:35.234Z,0.98
2023-05-19T09:29:35.261Z,0.98
2023-05-19T09:30:35.247Z,1.01
2023-05-19T09:31:35.329Z,0.95
2023-05-19T09:32:35.286Z,1.01
2023-05-19T09:33:35.285Z,1.00
2023-05-19T09:34:35.294Z,0.96
2023-05-19T09:35:35.439Z,0.98
2023-05-19T09:36:35.313Z,1.02
2023-05-19T09:37:35.285Z,1.03
2023-05-19T09:38:35.298Z,0.95
2023-05-19T09:39:35.322Z,1.02
2023-05-19T09:40:35.370Z,1.03
2023-05-19T09:41:35.434Z,1.03
2023-05-19T09:42:35.472Z,1.05
2023-05-19T09:43:35.550Z,1.02
2023-05-19T09:44:35.558Z,1.02
2023-05-19T09:45:35.556Z,1.01
2023-05-19T09:46:35.751Z,0.99
2023-05-19T09:47:35.580Z,0.98
2023-05-19T09:48:35.570Z,1.00
2023-05-19T09:49:35.567Z,0.98
2023-05-19T09:50:35.598Z,0.98
2023-05-19T09:51:35.598Z,0.94
2023-05-19T09:52:35.626Z,0.99
2023-05-19T09:53:35.625Z,1.09
2023-05-19T09:54:35.662Z,1.14
2023-05-19T09:55:35.691Z,1.22
2023-05-19T09:56:35.690Z,1.27
2023-05-19T09:57:35.774Z,1.36
2023-05-19T09:58:35.763Z,1.39
2023-05-19T09:59:35.831Z,1.45
2023-05-19T10:00:35.872Z,1.51
2023-05-19T10:01:35.969Z,1.56
2023-05-19T10:02:35.995Z,1.61
2023-05-19T10:03:35.967Z,1.67
2023-05-19T10:04:35.990Z,1.61
2023-05-19T10:05:36.164Z,1.64
2023-05-19T10:06:35.995Z,1.69
2023-05-19T10:07:36.051Z,1.68
2023-05-19T10:08:36.122Z,1.74
2023-05-19T10:09:36.164Z,1.76
2023-05-19T10:10:36.225Z,1.82
2023-05-19T10:11:36.293Z,1.76
2023-05-19T10:12:36.321Z,1.74
2023-05-19T10:13:36.387Z,1.79
2023-05-19T10:14:36.534Z,1.83
2023-05-19T10:15:46.689Z,1.90
2023-05-19T10:16:37.601Z,1.90
2023-05-19T10:17:36.497Z,1.89
2023-05-19T10:18:37.663Z,1.90
2023-05-19T10:19:36.516Z,1.95
2023-05-19T10:20:36.479Z,1.97
2023-05-19T10:21:36.466Z,1.98
2023-05-19T10:22:36.465Z,1.96
2023-05-19T10:23:36.446Z,2.00
2023-05-19T10:24:36.436Z,2.00
2023-05-19T10:25:36.442Z,2.00
2023-05-19T10:26:36.455Z,2.12
2023-05-19T10:27:36.416Z,2.11
2023-05-19T10:28:36.421Z,2.07
2023-05-19T10:29:36.479Z,2.02
2023-05-19T10:30:36.397Z,2.09
2023-05-19T10:31:36.431Z,2.04
2023-05-19T10:32:36.425Z,2.03
2023-05-19T10:33:36.377Z,2.07
2023-05-19T10:34:36.398Z,1.98
2023-05-19T10:35:36.612Z,1.94
2023-05-19T10:36:36.363Z,1.89
2023-05-19T10:37:36.354Z,1.75
2023-05-19T10:38:36.357Z,1.58
2023-05-19T10:39:36.333Z,1.49
2023-05-19T10:40:36.345Z,1.48
2023-05-19T10:41:36.352Z,1.62
2023-05-19T10:42:36.314Z,1.46
2023-05-19T10:43:36.308Z,1.40
2023-05-19T10:44:36.310Z,1.48
2023-05-19T10:45:36.386Z,1.33
2023-05-19T10:46:36.326Z,1.34
2023-05-19T10:47:36.301Z,1.18
2023-05-19T10:48:36.297Z,1.22
2023-05-19T10:49:36.293Z,1.30
2023-05-19T10:50:36.266Z,1.40
2023-05-19T10:51:36.265Z,1.31
2023-05-19T10:52:36.265Z,1.21
2023-05-19T10:53:36.247Z,1.28
2023-05-19T10:54:36.242Z,1.30
2023-05-19T10:55:36.238Z,1.29
2023-05-19T10:56:36.436Z,1.30
2023-05-19T10:57:36.243Z,1.26
2023-05-19T10:58:36.244Z,1.15
2023-05-19T10:59:36.210Z,1.09
2023-05-19T11:00:36.216Z,1.08
2023-05-19T11:01:36.291Z,1.09
2023-05-19T11:02:36.355Z,1.10
2023-05-19T11:03:36.310Z,1.14
2023-05-19T11:04:36.325Z,1.16
2023-05-19T11:05:36.387Z,1.16
2023-05-19T11:06:36.415Z,1.12
2023-05-19T11:07:36.425Z,1.14
2023-05-19T11:08:36.403Z,1.05
2023-05-19T11:09:40.573Z,1.11
2023-05-19T11:10:36.422Z,1.08
2023-05-19T11:11:36.392Z,1.06
2023-05-19T11:12:36.404Z,1.05
2023-05-19T11:13:36.716Z,1.07
2023-05-19T11:14:36.383Z,1.06
2023-05-19T11:15:36.393Z,1.11
2023-05-19T11:16:36.422Z,1.06
2023-05-19T11:17:36.376Z,1.00
2023-05-19T11:18:36.352Z,0.93
2023-05-19T11:19:36.356Z,0.96
2023-05-19T11:20:36.419Z,1.05
2023-05-19T11:21:36.381Z,1.10
2023-05-19T11:22:36.330Z,1.16
2023-05-19T11:23:36.339Z,1.18
2023-05-19T11:24:36.341Z,1.16
2023-05-19T11:25:36.300Z,1.16
2023-05-19T11:26:36.308Z,1.15
2023-05-19T11:27:36.316Z,1.22
2023-05-19T11:28:36.289Z,1.26
2023-05-19T11:29:36.277Z,1.32
2023-05-19T11:30:36.270Z,1.36
2023-05-19T11:31:36.337Z,1.38
2023-05-19T11:32:36.383Z,1.36
2023-05-19T11:33:36.339Z,1.40
2023-05-19T11:34:36.320Z,1.36
2023-05-19T11:35:36.648Z,1.27
2023-05-19T11:36:36.445Z,1.31
2023-05-19T11:37:36.587Z,1.38
2023-05-19T11:38:36.573Z,1.43
2023-05-19T11:39:36.562Z,1.42
2023-05-19T11:40:36.582Z,1.47
2023-05-19T11:41:37.336Z,1.43
2023-05-19T11:42:36.652Z,1.55
2023-05-19T11:43:36.676Z,1.44
2023-05-19T11:44:36.714Z,1.56
2023-05-19T11:45:36.848Z,1.56
2023-05-19T11:46:36.877Z,1.43
2023-05-19T11:47:50.923Z,1.40
2023-05-19T11:48:37.955Z,1.40
2023-05-19T11:49:36.963Z,1.32
2023-05-19T11:50:36.865Z,1.29
2023-05-19T11:51:36.852Z,1.27
2023-05-19T11:52:36.865Z,1.28
2023-05-19T11:53:36.862Z,1.24
2023-05-19T11:54:36.828Z,1.17
2023-05-19T11:55:36.843Z,1.20
2023-05-19T11:56:36.821Z,1.21
2023-05-19T11:57:36.820Z,1.22
2023-05-19T11:58:36.819Z,1.24
2023-05-19T11:59:36.827Z,1.26
2023-05-19T12:00:36.793Z,1.23
2023-05-19T12:01:36.809Z,1.13
2023-05-19T12:02:36.838Z,1.12
2023-05-19T12:03:36.945Z,1.06
2023-05-19T12:04:36.776Z,0.98
2023-05-19T12:05:40.827Z,0.97
2023-05-19T12:06:37.896Z,0.98
2023-05-19T12:07:36.750Z,0.98
2023-05-19T12:08:36.745Z,0.94
2023-05-19T12:09:36.751Z,1.00
2023-05-19T12:10:36.746Z,1.07
2023-05-19T12:11:36.726Z,1.14
2023-05-19T12:12:36.728Z,1.02
2023-05-19T12:13:36.721Z,0.93
2023-05-19T12:14:36.711Z,0.91
2023-05-19T12:15:36.749Z,1.04
2023-05-19T12:16:36.770Z,1.02
2023-05-19T12:17:36.765Z,0.97
2023-05-19T12:18:36.673Z,1.06
2023-05-19T12:19:36.672Z,0.97
2023-05-19T12:20:36.672Z,0.99
2023-05-19T12:21:36.704Z,0.90
2023-05-19T12:22:36.653Z,0.94
2023-05-19T12:23:36.701Z,0.99
2023-05-19T12:24:36.735Z,0.92
2023-05-19T12:25:36.900Z,0.87
2023-05-19T12:26:36.766Z,0.87
2023-05-19T12:27:36.792Z,0.88
2023-05-19T12:28:36.803Z,0.94
2023-05-19T12:29:36.823Z,0.96
2023-05-19T12:30:37.013Z,1.02
2023-05-19T12:31:36.854Z,1.01
2023-05-19T12:32:36.883Z,1.01
2023-05-19T12:33:36.868Z,0.93
2023-05-19T12:34:36.911Z,0.91
2023-05-19T12:35:36.980Z,0.90
2023-05-19T12:36:37.006Z,0.87
2023-05-19T12:37:37.017Z,0.90
2023-05-19T12:38:37.010Z,0.88
2023-05-19T12:39:37.010Z,0.89
2023-05-19T12:40:37.319Z,0.96
2023-05-19T12:41:37.002Z,0.86
2023-05-19T12:42:37.009Z,0.89
2023-05-19T12:43:37.011Z,0.87
2023-05-19T12:44:37.035Z,0.85
2023-05-19T12:45:37.367Z,0.87
2023-05-19T12:46:37.127Z,0.92
2023-05-19T12:47:37.251Z,0.89
2023-05-19T12:48:37.244Z,0.90
2023-05-19T12:49:37.259Z,0.88
2023-05-19T12:50:37.387Z,0.94
2023-05-19T12:51:37.264Z,0.91
2023-05-19T12:52:37.253Z,0.89
2023-05-19T12:53:37.301Z,0.85
2023-05-19T12:54:37.312Z,0.85
2023-05-19T12:55:37.276Z,0.87
2023-05-19T12:56:37.257Z,0.88
2023-05-19T12:57:37.291Z,0.95
2023-05-19T12:58:37.250Z,0.94
2023-05-19T12:59:38.818Z,1.01
2023-05-19T13:00:37.337Z,0.88
2023-05-19T13:01:37.268Z,0.88
2023-05-19T13:02:37.407Z,0.93
2023-05-19T13:03:37.427Z,0.91
2023-05-19T13:04:37.269Z,0.85
2023-05-19T13:05:37.320Z,0.82
2023-05-19T13:06:37.292Z,0.86
2023-05-19T13:07:37.286Z,0.82
2023-05-19T13:08:37.286Z,0.89
2023-05-19T13:09:37.284Z,0.87
2023-05-19T13:10:37.285Z,0.93
2023-05-19T13:11:37.272Z,0.92
2023-05-19T13:12:37.296Z,0.93
2023-05-19T13:13:37.260Z,0.97
2023-05-19T13:14:37.287Z,0.90
2023-05-19T13:15:37.262Z,0.87
2023-05-19T13:16:37.313Z,0.86
2023-05-19T13:17:37.339Z,0.91
2023-05-19T13:18:37.362Z,0.95